Latest Weather Observations for Cape Bruny AWS

IDT60801

Issued at 5:21 pm EDT Thursday 21 February 2019 (issued every 10 minutes, with the page automatically refreshed every 10 minutes)

About weather observations | Map of weather stations | Latest weather observations for TAS | Other Formats
Station Details ID: 094198 Name: CAPE BRUNY (CAPE BRUNY) Lat: -43.49 Lon: 147.14 Height: 59.7 m
Data from the previous 72 hours. | See also: Recent months at Cape Bruny AWS
Date/Time
EDT
Temp
°C
App
Temp
°C
Dew
Point
°C
Rel
Hum
%
Delta-T
°C
Wind Press
QNH
hPa
Press
MSL
hPa
Rain since
9am
mm
Dir  Spd
km/h
Gust
km/h
Spd
kts
Gust
kts
21/05:00pm 14.5 5.3 8.2 66 3.2 WSW 46 59 25 32 1015.9 1015.9 1.2
21/04:51pm 15.0 7.2 8.3 64 3.4 W 39 57 21 31 1015.6 1015.5 1.2
21/04:30pm 15.3 7.1 9.7 69 2.9 WSW 43 56 23 30 1015.4 1015.3 1.2
21/04:18pm 15.5 8.0 9.6 68 3.1 W 39 57 21 31 1015.4 1015.3 1.2
21/04:00pm 14.4 6.0 8.8 69 2.8 WSW 43 54 23 29 1015.3 1015.2 1.2
21/03:33pm 14.3 6.5 8.3 67 3.0 W 39 57 21 31 1015.2 1015.1 1.2
21/03:30pm 14.9 7.4 9.3 69 2.9 W 39 50 21 27 1015.2 1015.1 1.2
21/03:03pm 14.8 7.2 10.6 76 2.2 W 41 59 22 32 1015.1 1015.0 1.2
21/03:00pm 13.6 5.4 9.6 77 2.1 W 43 52 23 28 1015.1 1015.0 1.2
21/02:30pm 12.5 3.3 9.5 82 1.5 WSW 48 74 26 40 1014.8 1014.7 1.0
21/02:29pm 12.8 4.3 9.4 80 1.7 WSW 44 72 24 39 1014.9 1014.8 1.0
21/02:22pm 15.5 9.3 10.1 70 2.8 W 33 63 18 34 1014.8 1014.7 1.0
21/02:00pm 14.4 7.3 9.6 73 2.5 W 37 52 20 28 1014.5 1014.4 1.0
21/01:30pm 14.1 5.7 9.1 72 2.5 W 43 56 23 30 1014.3 1014.2 1.0
21/01:00pm 13.1 4.4 10.1 82 1.6 W 46 59 25 32 1014.0 1013.9 1.0
21/12:46pm 12.2 4.1 9.9 86 1.2 W 43 61 23 33 1014.1 1014.0 1.0
21/12:30pm 12.5 4.9 10.4 87 1.1 W 41 57 22 31 1013.7 1013.6 1.0
21/12:00pm 11.7 1.5 9.9 89 0.9 WSW 54 80 29 43 1013.3 1013.2 0.8
21/11:52am 11.9 3.1 9.6 86 1.2 WSW 46 80 25 43 1013.2 1013.1 0.4
21/11:48am 12.4 4.6 9.8 84 1.3 WSW 41 59 22 32 1013.3 1013.2 0.2
21/11:30am 13.8 5.0 9.5 75 2.2 WSW 46 63 25 34 1012.9 1012.8 0.2
21/11:11am 14.4 6.7 8.8 69 2.8 W 39 59 21 32 1012.4 1012.3 0.2
21/11:00am 13.8 5.0 9.5 75 2.2 W 46 59 25 32 1012.3 1012.2 0.2
21/10:37am 14.4 5.4 9.0 70 2.8 W 46 65 25 35 1011.9 1011.8 0.2
21/10:30am 13.9 4.1 8.5 70 2.7 W 50 65 27 35 1011.8 1011.7 0.2
21/10:10am 13.0 4.4 10.4 84 1.4 WSW 46 65 25 35 1011.5 1011.4 0.2
21/10:00am 12.8 5.1 10.0 83 1.4 WSW 41 57 22 31 1011.4 1011.3 0.2
21/09:55am 12.7 4.0 9.9 83 1.4 WSW 46 65 25 35 1011.6 1011.5 0.2
21/09:47am 13.2 4.7 8.7 74 2.3 W 43 65 23 35 1011.3 1011.2 0.0
21/09:39am 14.6 8.8 7.9 64 3.3 WNW 28 54 15 29 1011.1 1011.0 0.0
21/09:30am 14.7 11.1 8.4 66 3.2 W 17 26 9 14 1011.3 1011.2 0.0
21/09:00am 14.3 9.7 8.3 67 3.0 WNW 22 32 12 17 1010.8 1010.7 1.8
21/08:30am 12.6 4.9 8.7 77 2.0 W 39 50 21 27 1010.6 1010.5 1.8
21/08:16am 12.9 7.5 8.2 73 2.3 W 26 48 14 26 1010.4 1010.3 1.8
21/08:00am 13.4 7.6 7.8 69 2.8 WNW 28 39 15 21 1010.1 1010.0 1.8
21/07:30am 12.9 4.3 6.5 65 3.1 WNW 41 54 22 29 1009.5 1009.4 1.8
21/07:00am 12.6 5.2 6.6 67 2.9 WNW 35 50 19 27 1009.1 1009.0 1.8
21/06:32am 12.2 4.3 6.0 66 2.9 WNW 37 56 20 30 1009.0 1008.9 1.8
21/06:30am 12.1 3.8 6.2 67 2.8 WNW 39 54 21 29 1009.0 1008.9 1.8
21/06:01am 12.1 3.7 5.7 65 3.0 WNW 39 57 21 31 1009.0 1008.9 1.8
21/06:00am 12.1 3.7 5.5 64 3.1 WNW 39 56 21 30 1009.0 1008.9 1.8
21/05:44am 12.1 4.1 5.9 66 2.9 WNW 37 61 20 33 1009.1 1009.0 1.8
21/05:30am 12.2 4.2 5.8 65 3.0 NW 37 46 20 25 1009.2 1009.1 1.8
21/05:00am 11.9 4.0 6.2 68 2.7 NW 37 46 20 25 1009.4 1009.3 1.8
21/04:37am 11.9 4.2 5.5 65 3.0 NW 35 54 19 29 1009.3 1009.2 1.8
21/04:30am 11.9 3.8 5.3 64 3.1 NW 37 54 20 29 1009.3 1009.2 1.8
21/04:00am 11.9 4.9 5.8 66 2.9 WNW 32 43 17 23 1009.3 1009.2 1.8
21/03:30am 11.3 4.6 5.8 69 2.6 NW 30 35 16 19 1009.4 1009.3 1.8
21/03:00am 10.9 4.4 6.3 73 2.2 NW 30 35 16 19 1009.5 1009.4 1.8
21/02:30am 10.5 4.0 6.3 75 2.0 NW 30 41 16 22 1009.7 1009.6 1.8
21/02:08am 10.8 3.5 7.3 79 1.7 WNW 35 54 19 29 1009.8 1009.7 1.8
21/02:00am 10.9 2.7 6.6 75 2.0 WNW 39 54 21 29 1009.8 1009.7 1.8
21/01:30am 12.0 5.6 5.0 62 3.2 WNW 28 37 15 20 1009.5 1009.4 1.8
21/01:00am 11.7 4.4 4.7 62 3.2 NW 32 41 17 22 1009.6 1009.5 1.8
21/12:30am 11.7 4.9 5.3 65 3.0 NW 30 39 16 21 1009.8 1009.7 1.8
21/12:00am 11.2 5.7 5.9 70 2.5 WNW 24 35 13 19 1009.9 1009.8 1.8
 
Date/Time
EDT
Temp
°C
App
Temp
°C
Dew
Point
°C
Rel
Hum
%
Delta-T
°C
Wind Press
QNH
hPa
Press
MSL
hPa
Rain since
9am
mm
Dir  Spd
km/h
Gust
km/h
Spd
kts
Gust
kts
20/11:30pm 11.7 4.7 6.2 69 2.6 WNW 32 46 17 25 1009.9 1009.8 1.8
20/11:00pm 12.4 5.5 4.6 59 3.6 WNW 30 43 16 23 1009.7 1009.6 1.6
20/10:30pm 12.4 5.0 4.1 57 3.8 NW 32 41 17 22 1009.5 1009.4 1.6
20/10:00pm 12.2 5.8 3.2 54 4.0 NW 26 37 14 20 1009.6 1009.5 1.6
20/09:30pm 12.6 5.1 3.6 54 4.0 WNW 32 43 17 23 1009.5 1009.4 1.6
20/09:00pm 12.2 4.9 4.7 60 3.4 WNW 32 41 17 22 1009.1 1009.0 1.6
20/08:30pm 11.3 5.5 6.2 71 2.4 W 26 32 14 17 1009.1 1009.0 1.6
20/08:00pm 12.5 6.5 5.4 62 3.3 WNW 26 35 14 19 1008.7 1008.6 1.6
20/07:30pm 12.7 5.6 6.5 66 3.0 WNW 33 43 18 23 1008.2 1008.1 1.6
20/07:12pm 12.8 5.4 5.2 60 3.5 W 33 52 18 28 1008.2 1008.1 1.6
20/07:00pm 12.2 5.4 7.1 71 2.5 W 32 41 17 22 1008.1 1008.0 1.6
20/06:30pm 11.7 4.8 7.4 75 2.1 WSW 33 54 18 29 1007.7 1007.6 1.4
20/06:27pm 12.9 6.8 8.2 73 2.3 W 30 48 16 26 1007.7 1007.6 1.4
20/06:00pm 13.4 7.2 6.3 62 3.4 W 28 43 15 23 1007.4 1007.3 1.4
20/05:30pm 13.0 6.0 8.5 74 2.2 WSW 35 50 19 27 1007.4 1007.3 1.4
20/05:07pm 13.1 7.3 8.0 71 2.5 WSW 28 50 15 27 1007.2 1007.1 1.4
20/05:00pm 13.6 8.6 8.2 70 2.7 WSW 24 33 13 18 1007.3 1007.2 1.4
20/04:55pm 14.0 8.1 7.5 65 3.2 W 28 39 15 21 1007.2 1007.1 1.4
20/04:30pm 14.8 4.9 8.1 64 3.4 W 50 61 27 33 1006.6 1006.5 1.4
20/04:04pm 14.0 5.2 7.1 63 3.4 WSW 43 63 23 34 1006.3 1006.2 1.4
20/04:00pm 14.3 6.2 6.9 61 3.6 WSW 39 56 21 30 1006.4 1006.3 1.4
20/03:30pm 16.7 9.5 7.6 55 4.6 WSW 35 44 19 24 1006.3 1006.2 1.4
20/03:00pm 15.2 6.0 8.0 62 3.6 WSW 46 59 25 32 1006.5 1006.4 1.4
20/02:30pm 15.3 6.6 7.8 61 3.8 WSW 43 54 23 29 1006.2 1006.1 1.4
20/02:01pm 16.3 7.1 7.8 57 4.3 W 46 65 25 35 1005.9 1005.8 1.4
20/02:00pm 16.4 6.8 7.9 57 4.3 W 48 65 26 35 1005.8 1005.7 1.4
20/01:33pm 14.7 7.2 9.5 71 2.7 W 39 61 21 33 1005.9 1005.8 1.4
20/01:30pm 15.1 8.4 8.3 64 3.4 W 33 52 18 28 1005.7 1005.6 1.4
20/01:11pm 15.4 10.1 9.7 69 3.0 WNW 28 50 15 27 1005.6 1005.5 1.4
20/01:00pm 15.4 9.8 11.6 78 2.1 WNW 32 41 17 22 1005.6 1005.5 1.4
20/12:40pm 13.5 7.2 11.0 85 1.3 W 35 52 19 28 1005.7 1005.6 1.4
20/12:30pm 12.9 5.6 10.3 84 1.3 WSW 39 57 21 31 1005.8 1005.7 1.2
20/12:22pm 13.5 6.5 10.1 80 1.8 WSW 37 56 20 30 1005.7 1005.6 0.6
20/12:00pm 13.4 5.6 11.3 87 1.1 W 43 56 23 30 1005.7 1005.6 0.6
20/11:38am 15.2 8.0 10.4 73 2.5 WSW 39 57 21 31 1005.4 1005.3 0.0
20/11:30am 14.6 8.2 10.6 77 2.1 WSW 35 48 19 26 1005.5 1005.4 0.0
20/11:14am 16.1 10.7 9.5 65 3.4 NW 28 54 15 29 1005.1 1005.0 0.0
20/11:00am 15.9 9.9 10.0 68 3.1 WNW 32 46 17 25 1005.0 1004.9 0.0
20/10:30am 16.3 9.8 8.8 61 3.9 WNW 33 48 18 26 1004.7 1004.6 0.0
20/10:08am 17.0 12.2 8.9 59 4.2 WNW 24 44 13 24 1004.7 1004.6 0.0
20/10:00am 16.5 14.1 9.9 65 3.5 NW 13 26 7 14 1005.0 1004.9 0.0
20/09:30am 13.9 8.1 9.5 75 2.3 NW 30 39 16 21 1005.3 1005.2 0.0
20/09:00am 15.0 11.0 8.3 64 3.4 N 19 28 10 15 1004.9 1004.8 0.2
20/08:30am 15.6 11.6 8.1 61 3.8 N 19 24 10 13 1004.9 1004.8 0.2
20/08:00am 14.3 11.3 7.6 64 3.3 NNW 13 19 7 10 1005.3 1005.2 0.2
20/07:30am 14.5 10.6 7.1 61 3.6 NW 17 26 9 14 1005.0 1004.9 0.2
20/07:00am 14.4 9.1 7.0 61 3.6 NW 24 32 13 17 1005.0 1004.9 0.2
20/06:30am 13.2 8.2 6.5 64 3.2 NNW 22 30 12 16 1004.9 1004.8 0.2
20/06:00am 13.2 9.7 7.0 66 3.0 NNW 15 24 8 13 1005.2 1005.1 0.2
20/05:30am 13.1 9.1 6.5 64 3.2 NNW 17 26 9 14 1005.5 1005.4 0.2
20/05:00am 12.9 9.6 6.3 64 3.2 NNW 13 17 7 9 1005.9 1005.8 0.2
20/04:30am 12.2 8.4 6.0 66 2.9 N 15 19 8 10 1006.1 1006.0 0.2
20/04:00am 12.0 8.2 5.6 65 3.0 NNW 15 19 8 10 1006.5 1006.4 0.2
20/03:30am 11.8 7.6 5.7 66 2.8 NNW 17 19 9 10 1006.7 1006.6 0.2
20/03:00am 11.8 8.0 5.7 66 2.9 NNW 15 22 8 12 1006.9 1006.8 0.2
20/02:30am 11.8 7.6 5.9 67 2.8 NNW 17 20 9 11 1007.2 1007.1 0.2
20/02:00am 12.1 8.4 6.4 68 2.7 NNW 15 19 8 10 1007.7 1007.6 0.2
20/01:30am 12.8 9.5 6.2 64 3.1 NW 13 20 7 11 1008.2 1008.1 0.2
20/01:00am 13.3 7.5 6.4 63 3.3 NW 26 33 14 18 1008.3 1008.2 0.2
20/12:30am 13.3 7.4 5.9 61 3.5 NW 26 37 14 20 1008.2 1008.1 0.2
20/12:00am 12.6 8.5 6.4 66 3.0 NNW 17 24 9 13 1008.2 1008.1 0.2
 
Date/Time
EDT
Temp
°C
App
Temp
°C
Dew
Point
°C
Rel
Hum
%
Delta-T
°C
Wind Press
QNH
hPa
Press
MSL
hPa
Rain since
9am
mm
Dir  Spd
km/h
Gust
km/h
Spd
kts
Gust
kts
19/11:30pm 13.0 8.5 5.9 62 3.4 NW 19 28 10 15 1008.4 1008.3 0.2
19/11:00pm 13.7 7.5 6.1 60 3.6 WNW 28 35 15 19 1008.6 1008.5 0.2
19/10:30pm 13.5 9.0 7.1 65 3.1 NW 20 30 11 16 1008.8 1008.7 0.2
19/10:00pm 13.6 8.5 7.8 68 2.9 WNW 24 35 13 19 1008.8 1008.7 0.2
19/09:30pm 13.7 7.0 8.1 69 2.8 WNW 33 43 18 23 1008.8 1008.7 0.2
19/09:00pm 13.6 9.2 7.4 66 3.0 WNW 20 26 11 14 1008.7 1008.6 0.2
19/08:30pm 13.7 7.5 7.9 68 2.9 WNW 30 39 16 21 1008.3 1008.2 0.2
19/08:00pm 13.7 6.5 7.7 67 3.0 WNW 35 44 19 24 1008.0 1007.9 0.2
19/07:30pm 13.9 7.0 7.2 64 3.3 WNW 33 41 18 22 1007.7 1007.6 0.2
19/07:00pm 13.9 7.1 7.9 67 3.0 WNW 33 44 18 24 1007.5 1007.4 0.2
19/06:38pm 14.0 9.9 8.6 70 2.7 W 20 41 11 22 1007.5 1007.4 0.2
19/06:30pm 14.2 11.4 8.6 69 2.8 W 13 20 7 11 1007.5 1007.4 0.2
19/06:00pm 14.5 11.7 8.5 67 3.0 W 13 17 7 9 1007.4 1007.3 0.2
19/05:30pm 14.9 10.5 10.3 74 2.4 W 24 33 13 18 1007.5 1007.4 0.2
19/05:00pm 14.4 7.8 8.4 67 3.0 WSW 33 43 18 23 1007.0 1006.9 0.2
19/04:30pm 13.3 5.5 8.4 72 2.4 WSW 39 52 21 28 1006.8 1006.7 0.2
19/04:06pm 13.7 9.4 7.9 68 2.9 WNW 20 46 11 25 1006.9 1006.8 0.2
19/04:00pm 14.4 10.6 7.5 63 3.4 WNW 17 22 9 12 1006.9 1006.8 0.2
19/03:30pm 16.8 12.4 8.8 59 4.1 WNW 22 30 12 16 1006.8 1006.7 0.2
19/03:00pm 14.6 7.7 8.8 68 3.0 WSW 35 50 19 27 1006.8 1006.7 0.2
19/02:30pm 16.2 7.4 7.4 56 4.4 W 43 48 23 26 1006.2 1006.1 0.2
19/02:00pm 15.1 9.8 6.7 57 4.1 WNW 24 32 13 17 1006.2 1006.1 0.2
19/01:30pm 16.2 8.9 7.2 55 4.5 W 35 46 19 25 1006.0 1005.9 0.2
19/01:00pm 16.0 9.2 7.7 58 4.2 W 33 41 18 22 1005.8 1005.7 0.2
19/12:54pm 14.9 6.8 7.2 60 3.8 W 39 57 21 31 1005.8 1005.7 0.2
19/12:30pm 15.2 7.1 7.0 58 4.0 WNW 39 50 21 27 1005.4 1005.3 0.2
19/12:00pm 17.6 9.9 7.1 50 5.3 WNW 37 46 20 25 1005.1 1005.0 0.2
19/11:33am 15.9 8.4 4.6 47 5.3 WNW 33 52 18 28 1005.0 1004.9 0.2
19/11:30am 16.0 9.0 5.9 51 4.9 WNW 32 41 17 22 1005.0 1004.9 0.0
19/11:00am 16.1 9.8 7.3 56 4.4 WNW 30 39 16 21 1005.0 1004.9 0.0
19/10:30am 14.1 6.4 7.2 63 3.4 WNW 37 57 20 31 1004.7 1004.6 0.0
19/10:27am 13.7 5.6 6.8 63 3.3 WNW 39 57 21 31 1004.6 1004.5 0.0
19/10:00am 13.5 6.4 6.6 63 3.3 WNW 33 41 18 22 1004.3 1004.2 0.0
19/09:30am 13.0 7.7 6.6 65 3.1 WNW 24 33 13 18 1004.0 1003.9 0.0
19/09:00am 12.5 6.4 6.5 67 2.9 NW 28 43 15 23 1003.5 1003.4 1.0
19/08:58am 12.5 6.3 6.3 66 2.9 NW 28 46 15 25 1003.5 1003.4 1.0
19/08:30am 12.6 3.6 6.6 67 2.9 WNW 43 57 23 31 1003.0 1002.9 1.0
19/08:19am 12.7 3.4 6.1 64 3.1 WNW 44 63 24 34 1002.8 1002.7 1.0
19/08:00am 13.0 5.0 5.9 62 3.4 WNW 37 44 20 24 1002.7 1002.6 1.0
19/07:30am 12.9 3.5 5.3 60 3.5 WNW 44 57 24 31 1002.2 1002.1 1.0
19/07:00am 12.8 3.0 5.2 60 3.6 WNW 46 67 25 36 1001.9 1001.8 1.0
19/06:41am 12.9 5.0 4.3 56 3.9 WNW 35 56 19 30 1001.7 1001.7 1.0
19/06:30am 13.0 5.7 5.4 60 3.6 WNW 33 46 18 25 1001.5 1001.4 1.0
19/06:25am 12.6 4.5 5.1 60 3.5 WNW 37 56 20 30 1001.6 1001.6 1.0
19/06:00am 12.7 3.2 5.1 60 3.5 WNW 44 59 24 32 1001.2 1001.1 1.0
19/05:30am 12.6 0.9 5.1 60 3.5 WNW 56 74 30 40 1000.9 1000.8 1.0
19/05:08am 12.4 1.8 4.9 60 3.5 WNW 50 69 27 37 1000.8 1000.7 1.0
19/05:00am 12.3 2.5 5.5 63 3.2 WNW 46 61 25 33 1001.0 1000.9 1.0
19/04:33am 12.1 2.8 5.0 62 3.3 WNW 43 63 23 34 1000.8 1000.7 1.0
19/04:30am 12.0 3.2 5.4 64 3.1 WNW 41 57 22 31 1000.9 1000.8 1.0
19/04:02am 12.2 3.0 5.6 64 3.1 WNW 43 63 23 34 1001.1 1001.0 1.0
19/04:00am 12.2 3.4 5.6 64 3.1 WNW 41 63 22 34 1001.2 1001.1 1.0
19/03:38am 12.4 1.2 5.8 64 3.1 WNW 54 72 29 39 1000.9 1000.8 1.0
19/03:30am 12.4 3.2 6.2 66 2.9 WNW 44 61 24 33 1001.0 1000.9 1.0
19/03:00am 12.2 3.0 5.4 63 3.2 WNW 43 65 23 35 1001.4 1001.3 1.0
19/02:40am 12.4 3.0 4.6 59 3.6 WNW 43 61 23 33 1001.4 1001.3 1.0
19/02:30am 12.5 3.4 5.9 64 3.1 WNW 43 57 23 31 1001.1 1001.0 1.0
19/02:04am 12.2 3.9 4.2 58 3.6 WNW 37 57 20 31 1001.5 1001.4 1.0
19/02:00am 12.2 3.2 4.7 60 3.5 WNW 41 54 22 29 1001.6 1001.6 1.0
19/01:46am 12.2 3.6 4.4 59 3.5 WNW 39 57 21 31 1002.0 1001.9 1.0
19/01:30am 12.3 2.9 4.5 59 3.6 WNW 43 57 23 31 1001.9 1001.8 1.0
19/01:00am 12.4 4.0 3.6 55 4.0 WNW 37 57 20 31 1001.5 1001.4 1.0
19/12:30am 12.4 2.3 5.8 64 3.1 WNW 48 67 26 36 1001.6 1001.6 1.0
19/12:00am 12.1 4.7 5.0 62 3.3 NW 33 52 18 28 1001.7 1001.7 1.0
 
Date/Time
EDT
Temp
°C
App
Temp
°C
Dew
Point
°C
Rel
Hum
%
Delta-T
°C
Wind Press
QNH
hPa
Press
MSL
hPa
Rain since
9am
mm
Dir  Spd
km/h
Gust
km/h
Spd
kts
Gust
kts
18/11:30pm 12.6 4.0 4.6 58 3.7 WNW 39 52 21 28 1001.4 1001.3 1.0
18/11:08pm 12.4 4.5 4.6 59 3.6 WNW 35 54 19 29 1001.3 1001.2 1.0
18/11:00pm 12.2 5.4 4.9 61 3.4 WNW 30 43 16 23 1001.6 1001.6 1.0
18/10:43pm 12.2 5.1 5.4 63 3.2 WNW 32 50 17 27 1001.7 1001.7 1.0
18/10:30pm 12.2 4.9 5.4 63 3.2 WNW 33 46 18 25 1001.9 1001.8 1.0
18/10:00pm 12.0 6.0 5.4 64 3.1 NW 26 37 14 20 1001.9 1001.8 1.0
18/09:30pm 11.8 4.8 6.1 68 2.7 NW 32 39 17 21 1001.5 1001.4 1.0
18/09:00pm 11.8 5.0 7.1 73 2.3 WNW 32 41 17 22 1001.2 1001.1 1.0
18/08:30pm 11.3 3.4 6.4 72 2.3 WNW 37 56 20 30 1000.5 1000.4 1.0
18/08:29pm 11.4 3.6 6.5 72 2.3 NW 37 56 20 30 1000.5 1000.4 1.0
18/08:00pm 11.5 3.9 7.4 76 2.0 WNW 37 52 20 28 1000.0 999.9 1.0
18/07:30pm 13.8 5.0 7.3 65 3.2 WNW 43 63 23 34 999.2 999.1 0.4
18/07:28pm 14.3 5.5 7.1 62 3.5 WNW 43 63 23 34 999.0 998.9 0.4
18/07:00pm 14.5 5.6 6.8 60 3.8 WNW 43 59 23 32 998.6 998.5 0.4
18/06:49pm 14.4 6.6 6.5 59 3.8 WNW 37 56 20 30 998.4 998.3 0.4
18/06:30pm 14.5 5.7 8.0 65 3.2 WNW 44 56 24 30 998.4 998.3 0.4
18/06:00pm 14.6 5.6 7.4 62 3.6 WNW 44 59 24 32 998.2 998.1 0.4
18/05:35pm 14.6 3.3 7.2 61 3.6 WNW 56 74 30 40 998.0 997.9 0.4
18/05:30pm 15.3 3.8 8.5 64 3.5 WNW 59 74 32 40 997.9 997.8 0.4

Other formats

Comma delimited format used in spreadsheet applications
http://www.bom.gov.au/fwo/IDT60801/IDT60801.95967.axf

JavaScript Object Notation format (JSON) in row-major order
http://www.bom.gov.au/fwo/IDT60801/IDT60801.95967.json

Data quality

Most of these data are generated automatically and are frequently updated. Quality checks on data are not normally performed. It is possible for incorrect values to appear. Refer to information at About Latest Weather Observations and please check the disclaimer before using these data.